Flight Track Log - Related Links

Times and Time Zones

All times are in EDT time to prevent confusion due to time zone crossing. See the PDT4236 flight status page for this flight to view local times or setup timezone preferences in your user account.

Time Position Orientation Groundspeed Altitude Reporting Facility
EDT Latitude Longitude Course Direction KTS MPH feet Rate Location/Type
Sat 03:07:46 PM 35.1969 -80.9328 90° East 143 165 1,400  Level Atlanta Center
Sat 03:08:29 PM 35.1919 -80.8975 100° East 157 181 2,400 1,327 Climbing Atlanta Center
Sat 03:09:30 PM 35.1925 -80.8417 89° East 159 183 3,700 1,180 Climbing Atlanta Center
Sat 03:10:00 PM 35.1833 -80.5487 90° East  Level FlightAware Approximate
Sat 03:10:31 PM 35.1933 -80.7881 89° East 159 183 4,800  Level Atlanta Center
Sat 03:11:00 PM 35.2000 -80.4158 90° East  Level FlightAware Approximate
Sat 03:11:32 PM 35.1894 -80.7272 94° East 194 223 5,000  Level Atlanta Center
Sat 03:12:00 PM 35.2000 -80.2733 90° East  Level FlightAware Approximate
Sat 03:12:39 PM 35.1956 -80.6458 85° East 217 250 5,900  Level Atlanta Center
Sat 03:13:00 PM 35.2000 -80.1307 90° East  Level FlightAware Approximate
Sat 03:13:31 PM 35.1981 -80.5847 87° East 199 229 6,600  Level Atlanta Center
Sat 03:14:42 PM 35.1983 -80.5136 90° East 188 216 7,800 1,050 Climbing Atlanta Center
Sat 03:15:31 PM 35.2008 -80.4575 87° East 187 215 8,700 1,023 Climbing Atlanta Center
Sat 03:17:38 PM 35.2006 -80.3275 90° East 216 249 10,800 963 Climbing Washington Center
Sat 03:18:38 PM 35.2031 -80.2639 87° East 192 221 11,700 864 Climbing Washington Center
Sat 03:19:36 PM 35.2036 -80.1956 89° East 192 221 12,500 814 Climbing Washington Center
Sat 03:20:36 PM 35.2000 -80.1267 94° East 200 230 13,300 694 Climbing Washington Center
Sat 03:21:37 PM 35.2025 -80.0581 87° East 200 230 13,900 787 Climbing Washington Center
Sat 03:22:38 PM 35.2094 -79.9872 83° East 200 230 14,900 843 Climbing Washington Center
Sat 03:23:38 PM 35.2328 -79.9200 67° East 205 236 15,600 763 Climbing Washington Center
Sat 03:24:36 PM 35.2703 -79.8633 51° Northeast 210 242 16,400 712 Climbing Washington Center
Sat 03:25:36 PM 35.3097 -79.8069 49° Northeast 210 242 17,000 595 Climbing Washington Center
Sat 03:26:37 PM 35.3431 -79.7503 54° Northeast 215 247 17,600 590 Climbing Washington Center
Sat 03:27:38 PM 35.3786 -79.6883 55° Northeast 220 253 18,200 595 Climbing Washington Center
Sat 03:28:38 PM 35.4039 -79.6233 64° Northeast 215 247 18,800 555 Climbing Washington Center
Sat 03:29:37 PM 35.4269 -79.5531 68° East 215 247 19,300 504 Climbing Washington Center
Sat 03:30:37 PM 35.4481 -79.4828 70° East 215 247 19,800 350 Climbing Washington Center
Sat 03:31:37 PM 35.4717 -79.3997 71° East 223 257 20,000 101 Climbing Washington Center
Sat 03:32:36 PM 35.5108 -79.3431 50° Northeast 234 269 20,000  Level Washington Center
Sat 03:33:37 PM 35.5611 -79.2714 49° Northeast 247 284 20,000  Level Washington Center
Sat 03:34:38 PM 35.5986 -79.2067 55° Northeast 252 290 20,000  Level Washington Center
Sat 03:35:38 PM 35.6444 -79.1397 50° Northeast 247 284 20,000  Level Washington Center
Sat 03:36:36 PM 35.6903 -79.0700 51° Northeast 247 284 20,000  Level Washington Center
Sat 03:37:36 PM 35.7361 -78.9978 52° Northeast 247 284 20,000  Level Washington Center
Sat 03:38:37 PM 35.7842 -78.9283 50° Northeast 252 290 20,000  Level Washington Center
Sat 03:39:38 PM 35.8278 -78.8583 52° Northeast 252 290 20,000  Level Washington Center
Sat 03:40:38 PM 35.8953 -78.8303 19° North 247 284 20,000  Level Washington Center
Sat 03:41:36 PM 35.9525 -78.8789 325° Northwest 218 251 20,000  Level Washington Center
Sat 03:42:36 PM 36.0069 -78.9403 318° Northwest 221 254 20,000  Level Washington Center
Sat 03:43:37 PM 36.0594 -79.0017 317° Northwest 242 278 20,000  Level Washington Center
Sat 03:44:37 PM 36.1122 -79.0606 318° Northwest 255 293 20,000  Level Washington Center
Sat 03:45:38 PM 36.1625 -79.1244 314° West 262 302 20,000  Level Washington Center
Sat 03:46:36 PM 36.2106 -79.1883 313° West 262 302 20,000  Level Washington Center
Sat 03:47:36 PM 36.2564 -79.2600 308° West 255 293 20,000  Level Washington Center
Sat 03:48:37 PM 36.3003 -79.3264 309° West 255 293 20,000  Level Washington Center
Sat 03:49:37 PM 36.3461 -79.3931 310° West 255 293 20,000  Level Washington Center
Sat 03:50:37 PM 36.3900 -79.4572 310° West 255 293 20,000  Level Washington Center
Sat 03:51:38 PM 36.4394 -79.5344 309° West 255 293 20,000  Level Washington Center
Sat 03:52:38 PM 36.4833 -79.5989 310° West 255 293 20,000  Level Washington Center
Sat 03:53:36 PM 36.5269 -79.6656 309° West 255 293 20,000  Level Washington Center
Sat 03:54:37 PM 36.5686 -79.7272 310° West 250 288 20,000  Level Washington Center
Sat 03:55:38 PM 36.6064 -79.7861 309° West 250 288 20,000  Level Washington Center
Sat 03:56:36 PM 36.6500 -79.8508 310° West 245 282 20,000  Level Washington Center
Sat 03:57:37 PM 36.6914 -79.9150 309° West 245 282 20,000  Level Washington Center
Sat 03:58:38 PM 36.7350 -79.9797 310° West 245 282 20,000  Level Washington Center
Sat 03:59:38 PM 36.7803 -80.0525 308° West 245 282 20,000  Level Washington Center
Sat 04:00:36 PM 36.8175 -80.1194 305° West 239 275 20,000  Level Washington Center
Sat 04:01:37 PM 36.8500 -80.1939 299° West 239 275 20,000  Level Washington Center
Sat 04:02:31 PM 36.8783 -80.2683 295° West 238 274 20,000  Level Atlanta Center
Sat 04:03:31 PM 36.9094 -80.3317 302° West 222 255 20,000  Level Atlanta Center
Sat 04:04:31 PM 36.9492 -80.4053 304° West 227 261 20,000  Level Atlanta Center
Sat 04:05:31 PM 36.9906 -80.4708 308° West 238 274 20,000  Level Atlanta Center
Sat 04:06:31 PM 37.0419 -80.5128 327° Northwest 243 280 20,000  Level Atlanta Center
Sat 04:07:31 PM 37.0933 -80.5650 321° Northwest 238 274 20,000  Level Atlanta Center
Sat 04:08:31 PM 37.1492 -80.6147 325° Northwest 243 280 20,000  Level Atlanta Center
Sat 04:09:31 PM 37.2108 -80.6667 326° Northwest 243 280 20,000  Level Atlanta Center
Sat 04:11:30 PM 37.2764 -80.7964 302° West 246 283 20,000  Level Indianapolis Center
Sat 04:12:31 PM 37.3122 -80.8658 303° West 244 281 20,000  Level Indianapolis Center
Sat 04:13:32 PM 37.3536 -80.9294 309° West 242 278 20,000  Level Indianapolis Center
Sat 04:14:33 PM 37.3942 -80.9942 308° West 241 277 20,000  Level Indianapolis Center
Sat 04:15:35 PM 37.4436 -81.0711 309° West 243 280 20,000  Level Indianapolis Center
Sat 04:16:36 PM 37.4842 -81.1347 309° West 240 276 20,000 -98 Level Indianapolis Center
Sat 04:17:37 PM 37.5247 -81.1983 309° West 239 275 19,800 -541 Descending Indianapolis Center
Sat 04:18:38 PM 37.5692 -81.2689 308° West 260 299 18,900 -1,033 Descending Indianapolis Center
Sat 04:19:39 PM 37.6258 -81.3600 308° West 280 322 17,700 -1,024 Descending Indianapolis Center
Sat 04:20:41 PM 37.6750 -81.4369 309° West 288 331 16,800 -976 Descending Indianapolis Center
Sat 04:21:42 PM 37.7267 -81.5192 308° West 291 335 15,700 -1,033 Descending Indianapolis Center
Sat 04:22:43 PM 37.7758 -81.5975 308° West 285 328 14,700 -984 Descending Indianapolis Center
Sat 04:23:44 PM 37.8244 -81.6744 309° West 281 323 13,700 -1,024 Descending Indianapolis Center
Sat 04:24:46 PM 37.8683 -81.7447 308° West 278 320 12,600 -829 Descending Indianapolis Center
Sat 04:25:47 PM 37.9122 -81.8156 308° West 261 300 12,000 -295 Descending Indianapolis Center
Sat 04:26:48 PM 37.9614 -81.8956 308° West 243 280 12,000 -246 Level Indianapolis Center
Sat 04:27:49 PM 38.0039 -81.9625 309° West 243 280 11,500 -689 Descending Indianapolis Center
Sat 04:28:50 PM 38.0456 -82.0322 307° West 246 283 10,600 -878 Descending Indianapolis Center
Sat 04:29:52 PM 38.0911 -82.1050 309° West 258 297 9,700 -927 Descending Indianapolis Center
Sat 04:30:53 PM 38.1461 -82.1694 317° Northwest 267 307 8,700 -934 Descending Indianapolis Center
Sat 04:31:54 PM 38.1981 -82.2336 316° Northwest 261 300 7,800 -1,672 Descending Indianapolis Center
Sat 04:32:55 PM 38.2483 -82.2944 316° Northwest 252 290 5,300 -2,195 Descending Indianapolis Center
Sat 04:33:57 PM 38.2950 -82.3503 317° Northwest 237 273 3,300 -1,122 Descending Indianapolis Center
Sat 04:34:58 PM 38.3261 -82.4044 306° West 211 243 3,000 -295 Descending Indianapolis Center

Login

Don't have an account? Register now (free) for customized features, flight alerts, and more!